Boone, NC

11:01 AM EDT on September 21, 2014 (GMT -0400)
Seven Devils, NC | Change Station
CLOSE
Current Station
Personal Weather Station
Location: Seven Devils, NC
Elevation: 4262 ft
Nearby Weather Stations

Elev 4262 ft 36.14 °N, 81.83 °W | Updated 4 minutes ago

Overcast
Overcast
60.0 °F
Feels Like 60.0 °F
N
15.0
Wind Variable Wind from SSW
Gusts 26.0 mph

Today
High -- | Low -- °F
--% Chance of Precip.
Yesterday
High -- | Low -- °F
Precip. -- in
7:13 AM 7:25 PM
Waning Crescent, 6% visible
Pressure 30.05 in
Visibility 10.0 miles
Clouds Overcast 1800 ft
Dew Point 58 °F
Humidity 92%
Rainfall 0.00 in
Snow Depth Not available.
UV 1 out of 12
Pollen 5.90 out of 12
Air Quality Not available.
Flu Activity Not available.
METAR KTNB 211435Z AUTO 31015G22KT 10SM OVC018 19/14 A3005 RMK AO2 T01870140

More Conditions Fewer Conditions

Pressure 30.05 in
Visibility 10.0 miles
Clouds Overcast 1800 ft
Dew Point 58 °F
Humidity 92%
Rainfall 0.00 in
Snow Depth Not available.
UV 1 out of 12
Pollen 5.90 out of 12
Air Quality Not available.
Flu Activity Not available.
METAR KTNB 211435Z AUTO 31015G22KT 10SM OVC018 19/14 A3005 RMK AO2 T01870140

More Conditions Fewer Conditions

10-Day Weather Forecast

Almanac

Astronomy

Sep. 21, 2014 Rise Set
Actual Time 7:13 AM EDT 7:25 PM EDT
Civil Twilight 6:48 AM EDT 7:50 PM EDT
Nautical Twilight 6:18 AM EDT 8:20 PM EDT
Astronomical Twilight 5:47 AM EDT 8:51 PM EDT
Moon 4:49 AM EDT 5:57 PM EDT
Length of Visible Light 13h 02m
Length of Day
12h 11m
Tomorrow will be 2m 17s shorter.
Waning Crescent, 6% of the Moon is Illuminated
Today
Waning Crescent
Sep 24
New
Oct 1
First Quarter
Oct 8
Full
Oct 15
Last Quarter

Today's Extremes

State Highs State Lows

Community

WunderPhotos

Upload Photos

1,755,166 photos uploaded!

Nearby

Snow Depth

Station Depth Elevation
No new snow has been reported.

Earthquake Activity

City Distance Mag. Time & Date
No recent earthquake activity has been reported nearby.
Minimum magnitude displayed is 2.5.

Coastal Water Temperatures

Place Temperature
No Stations Reporting

Nearby Weather Stations